Dorcas, West Virginia
Current Conditions -  °F | °C
As of 10:15 AM on Saturday 22 Nov 2014 (Local Time) from KW99 Reporting Station
Clear Clear  
Wind Chill: 31°   Ceiling: Unl
Heat Index: 31°   Visibility: 10mi
Dew Point: 15°   Wind: 0mph
Humidity: 54%   Direction: NA
Pressure: 30.41"   Gusts: NA
Location:  38.9337°N, 79.1435°W
Report Text: KW99 221515Z AUTO 00000KT 10SM CLR M01/M09 A3041 RMK AO2 T10081092
Loading
Personal Weather Stations






























Interactive Weather Map New forecast layout! Learn more

10-Day Weather Forecast

Advertisements
Track Severe Weather on mobile